F.d. Vittorio Raiola — 3FJJ9 — position and weather

sailwx.info

Track history (hours):
 
Tides and Currents Weather Stations Pressure Air Temp Water Temp Dewpoint Dewpoint Depression Visibility Wind Speed Wind Dir Waves Ship Positions

F.d. Vittorio Raiola

Last reported at 2018-Apr-20 21:59 UTC. Time now 2018-Apr-20 22:13 UTC.
Position N 31°59' E 120°27'.

Length 225 m; draft 10.8 m.

Type: Cargo ship. MMSI: 356890000.

Date/timePositionNaut miles runAvg speedWind from/ knotsBaromVisibWave heightAir tempDewpointWater temp
2018-Apr-20 21:59N 31°59' E 120°27'0 0.0
2018-Apr-20 21:29N 31°59' E 120°27'0 0.0
2018-Apr-20 20:59N 31°59' E 120°27'0 0.0
2018-Apr-20 20:29N 31°59' E 120°27'0 0.0
2018-Apr-20 19:59N 31°59' E 120°27'0 0.0
2018-Apr-20 19:29N 31°59' E 120°27'0 0.0
2018-Apr-20 18:59N 31°59' E 120°27'0 0.0
2018-Apr-20 18:29N 31°59' E 120°27'0 0.0
2018-Apr-20 17:59N 31°59' E 120°27'0 0.0
2018-Apr-20 17:29N 31°59' E 120°27'0 0.0
2018-Apr-20 16:53N 31°59' E 120°27'0 0.0
2018-Apr-20 16:29N 31°59' E 120°27'0 0.0
2018-Apr-20 15:59N 31°59' E 120°27'0 0.0
2018-Apr-20 15:29N 31°59' E 120°27'0 0.0
2018-Apr-20 14:59N 31°59' E 120°27'0 0.0
2018-Apr-20 14:29N 31°59' E 120°27'0 0.0
2018-Apr-20 13:59N 31°59' E 120°27'0 0.0
2018-Apr-20 13:29N 31°59' E 120°27'0 0.0
2018-Apr-20 12:59N 31°59' E 120°27'0 0.0
2018-Apr-20 12:29N 31°59' E 120°27'0 0.0
2018-Apr-20 11:59N 31°59' E 120°27'0 0.0
2018-Apr-20 11:29N 31°59' E 120°27'0 0.0
2018-Apr-20 10:59N 31°59' E 120°27'0 0.0
2018-Apr-20 10:29N 31°59' E 120°27'0 0.0
2018-Apr-20 09:56N 31°59' E 120°27'0 0.0
2018-Apr-20 09:29N 31°59' E 120°27'0 0.0
2018-Apr-20 08:59N 31°59' E 120°27'0 0.0
2018-Apr-20 08:29N 31°59' E 120°27'0 0.0
2018-Apr-20 07:59N 31°59' E 120°27'0 0.0
2018-Apr-20 07:29N 31°59' E 120°27'0 0.0
2018-Apr-20 06:59N 31°59' E 120°27'0 0.0
2018-Apr-20 06:29N 31°59' E 120°27'0 0.0
2018-Apr-20 05:59N 31°59' E 120°27'0 0.0
2018-Apr-20 05:29N 31°59' E 120°27'0 0.0
2018-Apr-20 04:59N 31°59' E 120°27'0 0.0
2018-Apr-20 04:29N 31°59' E 120°27'0 0.0
2018-Apr-20 04:00N 31°59' E 120°27'1 2.8
2018-Apr-20 03:31N 32°00' E 120°27'3 5.6
2018-Apr-20 03:00N 32°02' E 120°30'510.7
2018-Apr-20 02:29N 32°00' E 120°36'24 8.9
2018-Apr-19 23:50N 31°47' E 120°58'8 9.8
2018-Apr-19 22:59N 31°43' E 121°07'510.8
2018-Apr-19 22:30N 31°40' E 121°12'611.7
2018-Apr-19 22:00N 31°36' E 121°17'2 3.9
2018-Apr-19 21:26N 31°35' E 121°19'0 0.0
2018-Apr-19 20:59N 31°35' E 121°19'0 0.0
2018-Apr-19 20:29N 31°35' E 121°19'0 0.0
2018-Apr-19 19:59N 31°35' E 121°19'0 0.0
2018-Apr-19 19:29N 31°35' E 121°19'0 0.1
2018-Apr-19 18:59N 31°35' E 121°19'0 0.1
2018-Apr-19 18:29N 31°35' E 121°19'0 0.0
2018-Apr-19 17:59N 31°35' E 121°19'0 0.0
2018-Apr-19 17:17N 31°35' E 121°19'0 0.1
2018-Apr-19 16:59N 31°35' E 121°19'0 0.5
2018-Apr-19 16:29N 31°35' E 121°20'0 0.1
2018-Apr-19 15:59N 31°35' E 121°20'0 0.0
2018-Apr-19 15:29N 31°35' E 121°20'0 0.0
2018-Apr-19 14:59N 31°35' E 121°20'0 0.0
2018-Apr-19 14:29N 31°35' E 121°20'0 0.0
2018-Apr-19 13:59N 31°35' E 121°20'0 0.0
2018-Apr-19 13:29N 31°35' E 121°20'0 0.0
2018-Apr-19 12:56N 31°35' E 121°20'0 0.0
2018-Apr-19 12:29N 31°35' E 121°20'0 0.0
2018-Apr-19 11:59N 31°35' E 121°20'0 0.0
2018-Apr-19 11:26N 31°35' E 121°20'0 0.1
2018-Apr-19 10:59N 31°35' E 121°20'1 1.2
2018-Apr-19 10:30N 31°34' E 121°20'3 5.5
2018-Apr-19 10:00N 31°32' E 121°22'510.7
2018-Apr-19 09:31N 31°29' E 121°27'4 7.7
2018-Apr-19 09:00N 31°26' E 121°30'3 6.5
2018-Apr-19 08:30N 31°24' E 121°33'5 8.9
2018-Apr-19 07:56N 31°22' E 121°38'4 9.0
2018-Apr-19 07:30N 31°20' E 121°42'4 8.8
2018-Apr-19 07:00N 31°18' E 121°47'5 9.3
2018-Apr-19 06:25N 31°16' E 121°53'611.9
2018-Apr-19 05:57N 31°15' E 121°59'510.7
2018-Apr-19 05:30N 31°14' E 122°05'613.0
2018-Apr-19 05:00N 31°11' E 122°11'713.4
2018-Apr-19 04:30N 31°07' E 122°17'510.2
2018-Apr-19 04:00N 31°06' E 122°23'4 8.0
2018-Apr-19 03:30N 31°07' E 122°28'510.9
2018-Apr-19 03:00N 31°07' E 122°34'10 1.3
2018-Apr-18 19:19N 31°09' E 122°46'1 4.1
2018-Apr-18 19:01N 31°09' E 122°47'6 9.5
2018-Apr-18 18:25N 31°06' E 122°53'612.6
2018-Apr-18 17:56N 31°03' E 122°58'712.2
2018-Apr-18 17:24N 30°59' E 123°05'511.4
2018-Apr-18 17:00N 31°00' E 123°10'713.0
2018-Apr-18 16:29N 30°56' E 123°16'713.5
2018-Apr-18 16:00N 30°52' E 123°22'813.9
2018-Apr-18 15:27N 30°44' E 123°22'613.1
2018-Apr-18 14:59N 30°38' E 123°21'713.6
2018-Apr-18 14:29N 30°31' E 123°21'713.4
2018-Apr-18 14:00N 30°25' E 123°20'816.1
2018-Apr-18 13:30N 30°17' E 123°18'510.8
2018-Apr-18 13:00N 30°11' E 123°18'  
2018-Apr-12 20:45N 34°09' E 129°43'412.8
2018-Apr-12 20:25N 34°11' E 129°48'512.3
2018-Apr-12 19:58N 34°15' E 129°53'612.5
2018-Apr-12 19:28N 34°20' E 129°58'612.4
2018-Apr-12 19:00N 34°24' E 130°03'612.5
2018-Apr-12 18:30N 34°28' E 130°08'612.4
2018-Apr-12 18:00N 34°32' E 130°14'712.5
2018-Apr-12 17:28N 34°36' E 130°21'612.3
2018-Apr-12 17:00N 34°40' E 130°26'612.1
2018-Apr-12 16:30N 34°44' E 130°32'912.1
2018-Apr-12 15:48N 34°49' E 130°40'  
Track history (hours):
 
Tides and Currents Weather Stations Pressure Air Temp Water Temp Dewpoint Dewpoint Depression Visibility Wind Speed Wind Dir Waves Ship Positions

F.d. Vittorio Raiola

Last reported at 2018-Apr-20 21:59 UTC. Time now 2018-Apr-20 22:13 UTC.
Position N 31°59' E 120°27'.

Length 225 m; draft 10.8 m.

Type: Cargo ship. MMSI: 356890000.

Date/timePositionNaut miles runAvg speedWind from/ knotsBaromVisibWave heightAir tempDewpointWater temp
2018-Apr-20 21:59N 31°59' E 120°27'0 0.0
2018-Apr-20 21:29N 31°59' E 120°27'0 0.0
2018-Apr-20 20:59N 31°59' E 120°27'0 0.0
2018-Apr-20 20:29N 31°59' E 120°27'0 0.0
2018-Apr-20 19:59N 31°59' E 120°27'0 0.0
2018-Apr-20 19:29N 31°59' E 120°27'0 0.0
2018-Apr-20 18:59N 31°59' E 120°27'0 0.0
2018-Apr-20 18:29N 31°59' E 120°27'0 0.0
2018-Apr-20 17:59N 31°59' E 120°27'0 0.0
2018-Apr-20 17:29N 31°59' E 120°27'0 0.0
2018-Apr-20 16:53N 31°59' E 120°27'0 0.0
2018-Apr-20 16:29N 31°59' E 120°27'0 0.0
2018-Apr-20 15:59N 31°59' E 120°27'0 0.0
2018-Apr-20 15:29N 31°59' E 120°27'0 0.0
2018-Apr-20 14:59N 31°59' E 120°27'0 0.0
2018-Apr-20 14:29N 31°59' E 120°27'0 0.0
2018-Apr-20 13:59N 31°59' E 120°27'0 0.0
2018-Apr-20 13:29N 31°59' E 120°27'0 0.0
2018-Apr-20 12:59N 31°59' E 120°27'0 0.0
2018-Apr-20 12:29N 31°59' E 120°27'0 0.0
2018-Apr-20 11:59N 31°59' E 120°27'0 0.0
2018-Apr-20 11:29N 31°59' E 120°27'0 0.0
2018-Apr-20 10:59N 31°59' E 120°27'0 0.0
2018-Apr-20 10:29N 31°59' E 120°27'0 0.0
2018-Apr-20 09:56N 31°59' E 120°27'0 0.0
2018-Apr-20 09:29N 31°59' E 120°27'0 0.0
2018-Apr-20 08:59N 31°59' E 120°27'0 0.0
2018-Apr-20 08:29N 31°59' E 120°27'0 0.0
2018-Apr-20 07:59N 31°59' E 120°27'0 0.0
2018-Apr-20 07:29N 31°59' E 120°27'0 0.0
2018-Apr-20 06:59N 31°59' E 120°27'0 0.0
2018-Apr-20 06:29N 31°59' E 120°27'0 0.0
2018-Apr-20 05:59N 31°59' E 120°27'0 0.0
2018-Apr-20 05:29N 31°59' E 120°27'0 0.0
2018-Apr-20 04:59N 31°59' E 120°27'0 0.0
2018-Apr-20 04:29N 31°59' E 120°27'0 0.0
2018-Apr-20 04:00N 31°59' E 120°27'1 2.8
2018-Apr-20 03:31N 32°00' E 120°27'3 5.6
2018-Apr-20 03:00N 32°02' E 120°30'510.7
2018-Apr-20 02:29N 32°00' E 120°36'24 8.9
2018-Apr-19 23:50N 31°47' E 120°58'8 9.8
2018-Apr-19 22:59N 31°43' E 121°07'510.8
2018-Apr-19 22:30N 31°40' E 121°12'611.7
2018-Apr-19 22:00N 31°36' E 121°17'2 3.9
2018-Apr-19 21:26N 31°35' E 121°19'0 0.0
2018-Apr-19 20:59N 31°35' E 121°19'0 0.0
2018-Apr-19 20:29N 31°35' E 121°19'0 0.0
2018-Apr-19 19:59N 31°35' E 121°19'0 0.0
2018-Apr-19 19:29N 31°35' E 121°19'0 0.1
2018-Apr-19 18:59N 31°35' E 121°19'0 0.1
2018-Apr-19 18:29N 31°35' E 121°19'0 0.0
2018-Apr-19 17:59N 31°35' E 121°19'0 0.0
2018-Apr-19 17:17N 31°35' E 121°19'0 0.1
2018-Apr-19 16:59N 31°35' E 121°19'0 0.5
2018-Apr-19 16:29N 31°35' E 121°20'0 0.1
2018-Apr-19 15:59N 31°35' E 121°20'0 0.0
2018-Apr-19 15:29N 31°35' E 121°20'0 0.0
2018-Apr-19 14:59N 31°35' E 121°20'0 0.0
2018-Apr-19 14:29N 31°35' E 121°20'0 0.0
2018-Apr-19 13:59N 31°35' E 121°20'0 0.0
2018-Apr-19 13:29N 31°35' E 121°20'0 0.0
2018-Apr-19 12:56N 31°35' E 121°20'0 0.0
2018-Apr-19 12:29N 31°35' E 121°20'0 0.0
2018-Apr-19 11:59N 31°35' E 121°20'0 0.0
2018-Apr-19 11:26N 31°35' E 121°20'0 0.1
2018-Apr-19 10:59N 31°35' E 121°20'1 1.2
2018-Apr-19 10:30N 31°34' E 121°20'3 5.5
2018-Apr-19 10:00N 31°32' E 121°22'510.7
2018-Apr-19 09:31N 31°29' E 121°27'4 7.7
2018-Apr-19 09:00N 31°26' E 121°30'3 6.5
2018-Apr-19 08:30N 31°24' E 121°33'5 8.9
2018-Apr-19 07:56N 31°22' E 121°38'4 9.0
2018-Apr-19 07:30N 31°20' E 121°42'4 8.8
2018-Apr-19 07:00N 31°18' E 121°47'5 9.3
2018-Apr-19 06:25N 31°16' E 121°53'611.9
2018-Apr-19 05:57N 31°15' E 121°59'510.7
2018-Apr-19 05:30N 31°14' E 122°05'613.0
2018-Apr-19 05:00N 31°11' E 122°11'713.4
2018-Apr-19 04:30N 31°07' E 122°17'510.2
2018-Apr-19 04:00N 31°06' E 122°23'4 8.0
2018-Apr-19 03:30N 31°07' E 122°28'510.9
2018-Apr-19 03:00N 31°07' E 122°34'10 1.3
2018-Apr-18 19:19N 31°09' E 122°46'1 4.1
2018-Apr-18 19:01N 31°09' E 122°47'6 9.5
2018-Apr-18 18:25N 31°06' E 122°53'612.6
2018-Apr-18 17:56N 31°03' E 122°58'712.2
2018-Apr-18 17:24N 30°59' E 123°05'511.4
2018-Apr-18 17:00N 31°00' E 123°10'713.0
2018-Apr-18 16:29N 30°56' E 123°16'713.5
2018-Apr-18 16:00N 30°52' E 123°22'813.9
2018-Apr-18 15:27N 30°44' E 123°22'613.1
2018-Apr-18 14:59N 30°38' E 123°21'713.6
2018-Apr-18 14:29N 30°31' E 123°21'713.4
2018-Apr-18 14:00N 30°25' E 123°20'816.1
2018-Apr-18 13:30N 30°17' E 123°18'510.8
2018-Apr-18 13:00N 30°11' E 123°18'  
2018-Apr-12 20:45N 34°09' E 129°43'412.8
2018-Apr-12 20:25N 34°11' E 129°48'512.3
2018-Apr-12 19:58N 34°15' E 129°53'612.5
2018-Apr-12 19:28N 34°20' E 129°58'612.4
2018-Apr-12 19:00N 34°24' E 130°03'612.5
2018-Apr-12 18:30N 34°28' E 130°08'612.4
2018-Apr-12 18:00N 34°32' E 130°14'712.5
2018-Apr-12 17:28N 34°36' E 130°21'612.3
2018-Apr-12 17:00N 34°40' E 130°26'612.1
2018-Apr-12 16:30N 34°44' E 130°32'912.1
2018-Apr-12 15:48N 34°49' E 130°40'  

Dump ship's entire track history